Time;durP1;ratioP1;P1;durP2;ratioP2;P2;SDS_P1;SDS_P2;PMS_P1;PMS_P2;Temp;Humidity;BMP_temperature;BMP_pressure;BME280_temperature;BME280_humidity;BME280_pressure;Samples;Min_cycle;Max_cycle;Signal;HPM_P1;HPM_P2
2022/01/17 00:02:17;;;;;;;168.88;58.30;;;;;;;-2.33;nan;101334.63;5086682;28;19915;-69
2022/01/17 00:04:43;;;;;;;158.68;58.03;;;;;;;-2.34;nan;101332.19;5075078;28;20045;-69
2022/01/17 00:07:08;;;;;;;157.73;58.53;;;;;;;-2.35;nan;101336.50;5045797;28;20516;-69
2022/01/17 00:09:33;;;;;;;152.32;57.55;;;;;;;-2.45;nan;101336.38;5073471;28;20505;-69
2022/01/17 00:11:59;;;;;;;127.40;53.40;;;;;;;-2.32;nan;101348.34;5067218;28;20032;-69
2022/01/17 00:14:29;;;;;;;136.80;53.00;;;;;;;-2.41;nan;101330.06;5053727;28;20025;-69
2022/01/17 00:17:08;;;;;;;134.57;52.67;;;;;;;-2.39;nan;101338.50;5044272;28;20390;-69
2022/01/17 00:19:47;;;;;;;127.30;50.10;;;;;;;-2.49;nan;101335.00;5069070;28;20054;-69
2022/01/17 00:22:20;;;;;;;124.80;49.47;;;;;;;-2.46;nan;101355.38;5073555;28;20058;-67
2022/01/17 00:24:47;;;;;;;119.30;49.42;;;;;;;-2.51;nan;101359.22;5064313;28;20040;-70
2022/01/17 00:27:16;;;;;;;122.38;50.97;;;;;;;-2.53;nan;101358.56;5060550;28;20029;-67
2022/01/17 00:29:42;;;;;;;123.47;50.80;;;;;;;-2.74;nan;101319.72;5067539;28;20033;-70
2022/01/17 00:32:08;;;;;;;126.05;51.35;;;;;;;-2.67;nan;101338.97;5045580;28;20035;-69
2022/01/17 00:34:33;;;;;;;135.35;53.08;;;;;;;-2.63;nan;101341.19;5051019;28;20032;-68
2022/01/17 00:36:58;;;;;;;141.80;56.42;;;;;;;-2.68;nan;101324.41;5063212;28;20021;-69
2022/01/17 00:39:24;;;;;;;146.75;56.20;;;;;;;-2.69;nan;101331.31;5057312;28;20033;-68
2022/01/17 00:41:50;;;;;;;133.75;53.75;;;;;;;-2.72;nan;101336.72;5072933;28;20032;-69
2022/01/17 00:44:20;;;;;;;122.90;51.22;;;;;;;-2.85;nan;101317.94;5072583;28;20055;-69
2022/01/17 00:46:46;;;;;;;124.68;50.95;;;;;;;-2.84;nan;101341.03;5034886;28;20037;-68
2022/01/17 00:49:11;;;;;;;128.45;51.90;;;;;;;-2.86;nan;101342.09;5045863;28;20099;-68
2022/01/17 00:51:36;;;;;;;121.38;48.80;;;;;;;-2.94;nan;101332.34;5068482;28;20028;-69
2022/01/17 00:54:02;;;;;;;124.47;51.75;;;;;;;-3.02;nan;101342.38;5063695;28;20029;-68
2022/01/17 00:56:27;;;;;;;128.85;52.00;;;;;;;-3.02;nan;101343.22;5068643;28;20097;-69
2022/01/17 00:58:53;;;;;;;126.95;53.45;;;;;;;-3.02;nan;101350.13;5065475;28;20398;-68
2022/01/17 01:01:18;;;;;;;132.32;52.80;;;;;;;-3.05;nan;101353.75;5053201;28;20499;-68
2022/01/17 01:03:45;;;;;;;121.32;52.85;;;;;;;-3.02;nan;101371.56;5072449;28;20063;-68
2022/01/17 01:06:10;;;;;;;124.30;52.85;;;;;;;-2.97;nan;101375.56;5069479;28;20040;-69
2022/01/17 01:08:35;;;;;;;128.48;51.60;;;;;;;-2.95;nan;101384.00;5071887;28;20642;-69
2022/01/17 01:11:01;;;;;;;130.23;51.03;;;;;;;-2.99;nan;101373.09;5072499;28;20525;-69
2022/01/17 01:13:29;;;;;;;119.25;50.65;;;;;;;-2.98;nan;101382.47;5048121;28;20074;-68
2022/01/17 01:29:06;;;;;;;108.65;46.75;;;;;;;-2.93;nan;101379.56;5070498;28;20079;-69
2022/01/17 01:31:43;;;;;;;107.32;45.47;;;;;;;-2.98;nan;101386.81;5063253;28;20541;-68
2022/01/17 01:34:09;;;;;;;102.55;43.97;;;;;;;-3.03;nan;101363.94;5058201;28;20068;-68
2022/01/17 01:36:35;;;;;;;104.85;43.50;;;;;;;-2.93;nan;101377.78;5071439;28;20032;-68
2022/01/17 01:39:03;;;;;;;96.95;40.53;;;;;;;-2.96;nan;101367.72;5070034;28;20418;-70
2022/01/17 01:41:29;;;;;;;106.07;45.03;;;;;;;-2.98;nan;101372.16;5071874;28;20028;-69
2022/01/17 01:43:54;;;;;;;112.68;46.35;;;;;;;-2.94;nan;101370.19;5072083;28;20035;-68
2022/01/17 01:46:20;;;;;;;115.45;48.53;;;;;;;-2.96;nan;101364.31;5061969;28;20119;-68
2022/01/17 01:48:46;;;;;;;115.90;48.88;;;;;;;-3.01;nan;101364.66;5067978;28;20029;-68
2022/01/17 01:51:13;;;;;;;125.40;52.67;;;;;;;-3.00;nan;101369.69;5052436;28;20064;-69
2022/01/17 01:53:38;;;;;;;124.13;51.40;;;;;;;-2.96;nan;101383.19;5066590;28;20036;-68
2022/01/17 01:56:04;;;;;;;134.63;51.05;;;;;;;-3.01;nan;101386.09;5051886;28;20062;-69
2022/01/17 01:58:29;;;;;;;132.70;51.47;;;;;;;-3.16;nan;101373.50;5065046;28;20040;-68
2022/01/17 02:00:55;;;;;;;120.22;46.35;;;;;;;-3.27;nan;101359.66;5060269;28;20075;-69
2022/01/17 02:03:22;;;;;;;115.60;45.15;;;;;;;-3.23;nan;101383.44;5034159;28;20037;-69
2022/01/17 02:05:47;;;;;;;108.50;43.92;;;;;;;-3.46;nan;101372.22;5054136;28;20065;-68
2022/01/17 02:08:14;;;;;;;112.65;44.67;;;;;;;-3.50;nan;101365.63;5033319;28;20072;-68
2022/01/17 02:10:40;;;;;;;113.70;45.38;;;;;;;-3.47;nan;101386.84;5053719;28;20040;-68
2022/01/17 02:13:06;;;;;;;124.35;45.42;;;;;;;-3.59;nan;101368.84;5068293;28;20032;-69
2022/01/17 02:15:31;;;;;;;100.05;40.22;;;;;;;-3.60;nan;101370.59;5060327;28;20031;-69
2022/01/17 02:17:58;;;;;;;107.90;39.63;;;;;;;-3.65;nan;101372.69;5053671;28;20033;-68
2022/01/17 02:20:42;;;;;;;95.53;36.75;;;;;;;-3.67;nan;101356.53;5053790;28;20047;-68
2022/01/17 02:23:08;;;;;;;89.65;34.22;;;;;;;-3.67;nan;101356.53;5064666;28;20028;-68
2022/01/17 02:25:34;;;;;;;86.80;33.28;;;;;;;-3.72;nan;101356.84;5065567;28;20036;-69
2022/01/17 02:28:00;;;;;;;93.82;33.80;;;;;;;-3.73;nan;101356.97;5070462;28;20039;-68
2022/01/17 02:30:27;;;;;;;99.80;33.17;;;;;;;-3.78;nan;101352.16;5069372;28;20119;-69
2022/01/17 02:32:52;;;;;;;88.13;33.83;;;;;;;-3.74;nan;101360.47;5060212;28;20033;-69
2022/01/17 02:35:23;;;;;;;81.68;33.53;;;;;;;-3.77;nan;101361.50;5068962;28;20449;-69
2022/01/17 02:37:50;;;;;;;80.75;33.15;;;;;;;-3.85;nan;101356.09;5075330;28;20336;-69
2022/01/17 02:40:17;;;;;;;88.97;33.55;;;;;;;-3.90;nan;101347.88;5057692;28;20032;-69
2022/01/17 02:42:45;;;;;;;87.57;34.35;;;;;;;-3.86;nan;101362.16;5074870;28;20382;-68
2022/01/17 02:45:36;;;;;;;86.13;33.38;;;;;;;-4.02;nan;101346.13;5075673;28;20082;-69
2022/01/17 02:48:06;;;;;;;89.95;35.78;;;;;;;-3.93;nan;101366.06;5063956;28;20029;-69
2022/01/17 02:50:33;;;;;;;96.47;35.55;;;;;;;-4.07;nan;101349.03;5060634;28;20033;-69
2022/01/17 02:53:01;;;;;;;104.85;37.05;;;;;;;-4.12;nan;101340.81;5056229;28;20058;-69
2022/01/17 02:55:27;;;;;;;101.97;37.15;;;;;;;-3.96;nan;101366.28;5075357;28;20028;-69
2022/01/17 02:57:53;;;;;;;91.68;36.92;;;;;;;-3.98;nan;101353.53;5057467;28;20359;-70
2022/01/17 03:00:18;;;;;;;101.05;36.15;;;;;;;-3.99;nan;101362.19;5067422;28;20108;-69
2022/01/17 03:02:48;;;;;;;92.90;35.20;;;;;;;-4.04;nan;101355.72;5055065;28;20128;-68
2022/01/17 03:05:14;;;;;;;98.60;37.03;;;;;;;-4.03;nan;101358.19;5057080;28;20045;-70
2022/01/17 03:07:40;;;;;;;96.70;36.00;;;;;;;-4.04;nan;101361.69;5037052;28;20399;-69
2022/01/17 03:10:11;;;;;;;95.78;36.20;;;;;;;-4.13;nan;101339.16;5052372;28;20040;-69
2022/01/17 03:12:36;;;;;;;88.32;33.08;;;;;;;-4.15;nan;101339.25;5052886;28;20079;-69
2022/01/17 03:15:02;;;;;;;93.57;36.47;;;;;;;-4.17;nan;101340.31;5038294;28;20076;-69
2022/01/17 03:17:29;;;;;;;92.95;33.90;;;;;;;-4.13;nan;101346.88;5053996;28;20497;-69
2022/01/17 03:19:55;;;;;;;94.57;36.15;;;;;;;-4.30;nan;101319.75;5067843;28;20032;-70
2022/01/17 03:22:20;;;;;;;94.88;34.92;;;;;;;-4.21;nan;101336.28;5074457;28;20155;-69
2022/01/17 03:24:45;;;;;;;92.93;36.03;;;;;;;-4.40;nan;101317.00;5056601;28;20064;-69
2022/01/17 03:27:11;;;;;;;87.90;35.30;;;;;;;-4.33;nan;101327.69;5074321;28;20035;-68
2022/01/17 03:29:36;;;;;;;93.95;34.92;;;;;;;-4.34;nan;101337.13;5074593;28;20103;-69
2022/01/17 03:32:02;;;;;;;94.95;35.10;;;;;;;-4.37;nan;101347.63;5067112;28;20036;-69
2022/01/17 03:34:27;;;;;;;82.40;35.00;;;;;;;-4.53;nan;101331.59;5062710;28;20046;-69
2022/01/17 03:36:53;;;;;;;84.68;34.40;;;;;;;-4.49;nan;101338.19;5055682;28;20052;-69
2022/01/17 03:39:18;;;;;;;88.53;34.28;;;;;;;-4.46;nan;101350.00;5073166;28;20483;-69
2022/01/17 03:41:44;;;;;;;87.43;33.72;;;;;;;-4.50;nan;101349.41;5074842;28;20381;-69
2022/01/17 03:44:09;;;;;;;76.53;31.52;;;;;;;-4.57;nan;101343.03;5062549;28;20037;-69
2022/01/17 03:46:35;;;;;;;81.07;33.30;;;;;;;-4.61;nan;101349.31;5047631;28;20514;-68
2022/01/17 03:49:00;;;;;;;89.57;33.88;;;;;;;-4.67;nan;101347.94;5073681;28;20237;-68
2022/01/17 03:51:26;;;;;;;87.18;32.72;;;;;;;-4.67;nan;101363.38;5073940;28;20025;-69
2022/01/17 03:53:52;;;;;;;87.30;33.65;;;;;;;-4.75;nan;101338.19;5063390;28;20146;-69
2022/01/17 03:56:18;;;;;;;90.18;34.20;;;;;;;-4.66;nan;101352.19;5067197;28;20386;-69
2022/01/17 03:58:45;;;;;;;88.70;32.33;;;;;;;-4.77;nan;101339.22;5073660;28;20119;-68
2022/01/17 04:01:11;;;;;;;93.50;33.78;;;;;;;-4.74;nan;101344.13;5068796;28;20040;-69
2022/01/17 04:03:36;;;;;;;84.18;32.70;;;;;;;-4.72;nan;101358.56;5056416;28;20059;-69
2022/01/17 04:06:02;;;;;;;91.47;34.38;;;;;;;-4.75;nan;101352.78;5085459;28;20037;-67
2022/01/17 04:08:27;;;;;;;91.18;35.97;;;;;;;-4.71;nan;101351.66;5075635;28;20119;-67
2022/01/17 04:10:53;;;;;;;105.93;36.33;;;;;;;-4.73;nan;101349.19;5092208;28;20032;-69
2022/01/17 04:13:19;;;;;;;102.80;35.97;;;;;;;-4.72;nan;101353.41;5097765;28;20036;-67
2022/01/17 04:15:45;;;;;;;99.93;37.58;;;;;;;-4.78;nan;101340.16;5078348;28;20043;-69
2022/01/17 04:18:11;;;;;;;103.63;37.10;;;;;;;-4.73;nan;101350.94;5089597;28;20585;-69
2022/01/17 04:20:38;;;;;;;98.10;34.95;;;;;;;-4.81;nan;101343.75;5081043;28;20028;-68
2022/01/17 04:23:06;;;;;;;102.90;36.15;;;;;;;-4.76;nan;101353.72;5093382;28;20028;-69
2022/01/17 04:25:35;;;;;;;93.50;36.67;;;;;;;-4.74;nan;101360.41;5092307;28;20028;-68
2022/01/17 04:28:05;;;;;;;93.70;35.22;;;;;;;-4.85;nan;101342.28;5073281;28;20494;-68
2022/01/17 04:30:31;;;;;;;98.25;35.95;;;;;;;-4.76;nan;101372.53;5083470;28;20102;-67
2022/01/17 04:32:57;;;;;;;95.55;34.75;;;;;;;-5.03;nan;101325.53;5080017;28;20028;-68
2022/01/17 04:35:25;;;;;;;96.40;35.38;;;;;;;-4.77;nan;101357.19;5075210;28;20029;-69
2022/01/17 04:38:05;;;;;;;108.30;38.42;;;;;;;-4.78;nan;101360.72;5092617;28;20032;-67
2022/01/17 04:40:36;;;;;;;97.45;35.85;;;;;;;-4.79;nan;101361.63;5075993;28;20040;-69
2022/01/17 04:43:05;;;;;;;102.95;37.33;;;;;;;-4.84;nan;101349.06;5092108;28;20039;-69
2022/01/17 04:45:32;;;;;;;101.25;38.38;;;;;;;-4.75;nan;101363.06;5081703;28;20036;-67
2022/01/17 04:47:58;;;;;;;109.20;39.75;;;;;;;-4.78;nan;101364.09;5086851;28;20162;-68
2022/01/17 04:50:28;;;;;;;104.90;37.70;;;;;;;-4.73;nan;101371.50;5086317;28;20110;-69
2022/01/17 04:52:59;;;;;;;107.32;39.63;;;;;;;-4.71;nan;101370.47;5078753;28;20112;-70
2022/01/17 04:55:29;;;;;;;106.53;39.13;;;;;;;-4.66;nan;101359.88;5079175;28;20073;-68
2022/01/17 04:57:56;;;;;;;104.07;38.45;;;;;;;-4.66;nan;101357.31;5086988;28;20485;-70
2022/01/17 05:00:25;;;;;;;102.18;37.90;;;;;;;-4.81;nan;101342.91;5078807;28;20135;-71
2022/01/17 05:02:50;;;;;;;77.72;28.65;;;;;;;-4.73;nan;101368.94;5080196;28;20500;-70
2022/01/17 05:05:16;;;;;;;110.65;38.72;;;;;;;-4.79;nan;101365.03;5065689;28;20044;-70
2022/01/17 05:07:42;;;;;;;110.40;38.00;;;;;;;-4.85;nan;101362.84;5072531;28;20029;-70
2022/01/17 05:10:10;;;;;;;105.70;39.42;;;;;;;-4.74;nan;101380.97;5067622;28;20047;-69
2022/01/17 05:12:36;;;;;;;115.33;39.37;;;;;;;-4.78;nan;101373.56;5046413;28;20024;-70
2022/01/17 05:15:16;;;;;;;107.22;39.45;;;;;;;-4.86;nan;101357.81;5048543;28;20040;-70
2022/01/17 05:17:57;;;;;;;96.30;37.50;;;;;;;-4.76;nan;101376.84;5066556;28;20040;-72
2022/01/17 05:20:23;;;;;;;113.93;39.92;;;;;;;-4.78;nan;101373.56;5073733;28;20040;-72
2022/01/17 05:22:48;;;;;;;111.88;41.13;;;;;;;-4.75;nan;101375.91;5054970;28;20040;-73
2022/01/17 05:25:14;;;;;;;107.97;40.97;;;;;;;-4.70;nan;101386.69;5073143;28;20089;-73
2022/01/17 05:27:39;;;;;;;120.18;41.97;;;;;;;-4.78;nan;101370.97;5053783;28;20119;-73
2022/01/17 05:30:08;;;;;;;124.13;41.78;;;;;;;-4.68;nan;101384.03;5054525;28;20390;-72
2022/01/17 05:32:34;;;;;;;121.82;42.17;;;;;;;-4.66;nan;101385.59;5072854;28;20029;-72
2022/01/17 05:34:59;;;;;;;128.48;44.95;;;;;;;-4.63;nan;101377.66;5052818;28;20171;-72
2022/01/17 05:37:25;;;;;;;119.88;43.45;;;;;;;-4.87;nan;101328.72;5071391;28;20036;-73
2022/01/17 05:39:50;;;;;;;118.97;42.42;;;;;;;-4.53;nan;101377.88;5055471;28;20041;-71
2022/01/17 05:42:18;;;;;;;116.22;42.28;;;;;;;-4.54;nan;101363.38;5068384;28;20417;-73
2022/01/17 05:44:47;;;;;;;115.38;42.22;;;;;;;-4.44;nan;101358.44;5069789;28;20037;-73
2022/01/17 05:47:13;;;;;;;112.40;40.83;;;;;;;-4.47;nan;101356.91;5055761;28;20033;-72
2022/01/17 05:49:39;;;;;;;113.68;42.47;;;;;;;-4.44;nan;101354.13;5052158;28;20379;-72
2022/01/17 05:52:05;;;;;;;125.35;44.38;;;;;;;-4.34;nan;101369.75;5052222;28;20037;-72
2022/01/17 05:54:31;;;;;;;109.30;41.08;;;;;;;-4.35;nan;101353.50;5052045;28;20544;-72
2022/01/17 05:56:56;;;;;;;108.70;42.90;;;;;;;-4.35;nan;101330.38;5054138;28;20055;-72
2022/01/17 05:59:21;;;;;;;114.82;41.03;;;;;;;-4.27;nan;101330.66;5068065;28;20021;-72
2022/01/17 06:01:47;;;;;;;112.13;40.75;;;;;;;-4.24;nan;101328.78;5058685;28;20074;-72
2022/01/17 06:04:12;;;;;;;117.03;41.90;;;;;;;-4.28;nan;101310.19;5057375;28;20128;-72
2022/01/17 06:06:38;;;;;;;102.15;37.92;;;;;;;-4.13;nan;101334.84;5060254;28;20536;-72
2022/01/17 06:09:03;;;;;;;108.63;41.47;;;;;;;-4.11;nan;101325.28;5059851;28;20032;-72
2022/01/17 06:11:30;;;;;;;108.43;40.83;;;;;;;-4.08;nan;101327.63;5046371;28;20029;-73
2022/01/17 06:13:57;;;;;;;106.07;40.13;;;;;;;-4.05;nan;101324.00;5038876;28;20037;-72
2022/01/17 06:16:23;;;;;;;106.78;40.72;;;;;;;-4.02;nan;101325.56;5055860;28;20036;-73
2022/01/17 06:18:49;;;;;;;101.15;39.83;;;;;;;-4.04;nan;101309.44;5057471;28;20486;-72
2022/01/17 06:21:14;;;;;;;100.43;39.25;;;;;;;-3.92;nan;101324.81;5038180;28;20039;-71
2022/01/17 06:23:40;;;;;;;108.22;39.95;;;;;;;-3.88;nan;101317.69;5068727;28;20036;-72
2022/01/17 06:26:05;;;;;;;110.97;42.67;;;;;;;-3.96;nan;101286.53;5063541;28;20755;-71
2022/01/17 06:28:30;;;;;;;108.75;42.28;;;;;;;-3.81;nan;101306.03;5038297;28;20033;-71
2022/01/17 06:30:56;;;;;;;121.82;43.50;;;;;;;-3.75;nan;101303.03;5042538;28;20380;-71
2022/01/17 06:33:21;;;;;;;120.20;45.78;;;;;;;-3.69;nan;101320.63;5036980;28;20556;-70
2022/01/17 06:35:47;;;;;;;126.43;46.35;;;;;;;-3.63;nan;101306.47;5049624;28;20032;-72
2022/01/17 06:38:12;;;;;;;125.50;47.13;;;;;;;-3.53;nan;101330.63;5052447;28;20068;-72
2022/01/17 06:40:38;;;;;;;124.43;45.88;;;;;;;-3.46;nan;101328.44;5053030;28;20036;-71
2022/01/17 06:43:06;;;;;;;113.75;44.55;;;;;;;-3.55;nan;101322.19;5057507;28;20037;-73
2022/01/17 06:45:31;;;;;;;124.00;44.33;;;;;;;-3.39;nan;101345.09;5074920;28;20033;-71
2022/01/17 06:47:57;;;;;;;121.03;45.95;;;;;;;-3.43;nan;101325.63;5074084;28;20033;-73
2022/01/17 06:50:23;;;;;;;120.28;46.03;;;;;;;-3.30;nan;101312.72;5046693;28;20111;-73
2022/01/17 06:52:49;;;;;;;108.10;40.85;;;;;;;-3.32;nan;101299.94;5054867;28;20052;-72
2022/01/17 06:55:14;;;;;;;113.50;42.60;;;;;;;-3.22;nan;101305.22;5051546;28;20033;-70
2022/01/17 06:57:40;;;;;;;108.97;44.08;;;;;;;-3.19;nan;101305.00;5067917;28;20040;-71
2022/01/17 07:00:08;;;;;;;106.93;43.72;;;;;;;-3.09;nan;101305.13;5046090;28;20440;-71
2022/01/17 07:02:34;;;;;;;81.13;33.22;;;;;;;-3.02;nan;101309.75;5054158;28;20119;-70
2022/01/17 07:04:59;;;;;;;109.88;42.63;;;;;;;-3.03;nan;101308.06;5065469;28;20489;-71
2022/01/17 07:07:25;;;;;;;107.43;42.70;;;;;;;-2.93;nan;101323.69;5055447;28;20036;-71
2022/01/17 07:09:50;;;;;;;101.45;41.22;;;;;;;-2.80;nan;101337.31;5074731;28;20043;-71
2022/01/17 07:12:15;;;;;;;98.50;40.20;;;;;;;-2.75;nan;101323.22;5074564;28;20119;-72
2022/01/17 07:14:42;;;;;;;104.38;43.65;;;;;;;-2.67;nan;101308.03;5042414;28;20493;-71
2022/01/17 07:17:11;;;;;;;109.25;44.53;;;;;;;-2.72;nan;101284.34;5062060;28;20065;-71
2022/01/17 07:19:37;;;;;;;101.78;41.75;;;;;;;-2.66;nan;101284.72;5062358;28;20547;-71
2022/01/17 07:22:04;;;;;;;103.30;41.85;;;;;;;-2.46;nan;101284.94;5065421;28;20045;-72
2022/01/17 07:24:30;;;;;;;94.68;39.00;;;;;;;-2.45;nan;101264.16;5063679;28;20032;-72
2022/01/17 07:26:55;;;;;;;99.03;39.88;;;;;;;-2.34;nan;101260.78;5061266;28;20052;-74
2022/01/17 07:29:21;;;;;;;99.90;40.10;;;;;;;-2.29;nan;101268.97;5061220;28;20061;-72
2022/01/17 07:31:47;;;;;;;91.68;37.13;;;;;;;-2.29;nan;101270.72;5060808;28;20090;-72
2022/01/17 07:34:12;;;;;;;96.90;38.05;;;;;;;-2.18;nan;101291.34;5057487;28;20032;-72
2022/01/17 07:36:38;;;;;;;86.32;36.67;;;;;;;-2.16;nan;101279.13;5049423;28;20048;-72
2022/01/17 07:39:03;;;;;;;88.28;35.42;;;;;;;-2.07;nan;101303.41;5073534;28;20421;-72
2022/01/17 07:41:29;;;;;;;90.97;36.55;;;;;;;-2.28;nan;101270.59;5067047;28;20033;-72
2022/01/17 07:43:54;;;;;;;94.20;39.15;;;;;;;-2.08;nan;101318.09;5055685;28;20055;-71
2022/01/17 07:46:35;;;;;;;95.22;38.42;;;;;;;-1.94;nan;101356.53;5059495;28;20052;-71
2022/01/17 07:49:13;;;;;;;91.93;37.63;;;;;;;-1.98;nan;101369.81;5072188;28;20047;-71
2022/01/17 07:51:42;;;;;;;90.85;37.72;;;;;;;-1.88;nan;101377.66;5055626;28;20043;-71
2022/01/17 07:54:10;;;;;;;86.43;35.53;;;;;;;-1.90;nan;101376.94;5070466;28;20028;-70
2022/01/17 07:56:37;;;;;;;92.47;37.38;;;;;;;-1.83;nan;101371.19;5069867;28;20158;-71
2022/01/17 07:59:03;;;;;;;80.95;34.10;;;;;;;-1.85;nan;101344.66;5054082;28;20028;-71
2022/01/17 08:01:29;;;;;;;85.70;34.83;;;;;;;-1.77;nan;101336.34;5068065;28;20044;-72
2022/01/17 08:03:55;;;;;;;80.38;36.22;;;;;;;-1.68;nan;101337.34;5054666;28;20044;-71
2022/01/17 08:06:20;;;;;;;87.45;37.63;;;;;;;-1.60;nan;101340.16;5064315;28;20136;-74
2022/01/17 08:08:47;;;;;;;85.30;36.05;;;;;;;-1.67;nan;101306.25;5063655;28;20475;-73
2022/01/17 08:11:12;;;;;;;80.50;33.33;;;;;;;-1.55;nan;101305.25;5063897;28;20044;-72
2022/01/17 08:13:38;;;;;;;83.50;34.45;;;;;;;-1.54;nan;101285.41;5061923;28;20036;-71
2022/01/17 08:16:03;;;;;;;81.25;33.95;;;;;;;-1.61;nan;101242.94;5035293;28;20035;-72
2022/01/17 08:18:29;;;;;;;87.63;35.53;;;;;;;-1.58;nan;101235.78;5049608;28;20544;-72
2022/01/17 08:20:55;;;;;;;92.18;38.15;;;;;;;-1.56;nan;101248.56;5047791;28;20479;-71
2022/01/17 08:23:20;;;;;;;94.40;39.60;;;;;;;-1.50;nan;101245.47;5065785;28;20068;-71
2022/01/17 08:25:46;;;;;;;92.05;39.10;;;;;;;-1.45;nan;101252.84;5066135;28;20037;-70
2022/01/17 08:28:13;;;;;;;93.15;38.00;;;;;;;-1.50;nan;101263.56;5049812;28;20032;-72
2022/01/17 08:30:38;;;;;;;86.05;36.38;;;;;;;-1.47;nan;101278.81;5062865;28;20504;-72
2022/01/17 08:33:04;;;;;;;90.88;36.40;;;;;;;-1.59;nan;101266.88;5066102;28;20036;-71
2022/01/17 08:35:30;;;;;;;80.00;37.00;;;;;;;-1.35;nan;101319.13;5053972;28;20060;-72
2022/01/17 08:37:55;;;;;;;80.30;35.95;;;;;;;-1.35;nan;101344.16;5038775;28;20116;-70
2022/01/17 08:40:22;;;;;;;82.13;36.35;;;;;;;-1.49;nan;101345.25;5064055;28;20037;-72
2022/01/17 08:42:49;;;;;;;83.70;35.45;;;;;;;-1.24;nan;101400.97;5047531;28;20143;-71
2022/01/17 08:45:16;;;;;;;81.82;35.10;;;;;;;-1.26;nan;101374.44;5041769;28;20028;-72
2022/01/17 08:47:46;;;;;;;88.78;37.40;;;;;;;-1.25;nan;101342.47;5065141;28;20429;-72
2022/01/17 08:50:12;;;;;;;86.18;37.60;;;;;;;-1.20;nan;101334.34;5054054;28;20040;-70
2022/01/17 08:52:38;;;;;;;90.00;38.90;;;;;;;-1.50;nan;101271.31;5058315;28;20383;-72
2022/01/17 08:55:04;;;;;;;88.65;38.85;;;;;;;-1.16;nan;101299.56;5059031;28;20043;-69
2022/01/17 08:57:33;;;;;;;85.45;37.17;;;;;;;-1.18;nan;101294.50;5036903;28;20029;-75
2022/01/17 08:59:59;;;;;;;93.90;37.80;;;;;;;-1.20;nan;101257.63;5055817;28;20032;-74
2022/01/17 09:02:25;;;;;;;82.55;36.33;;;;;;;-1.16;nan;101265.97;5047057;28;20039;-74
2022/01/17 09:04:50;;;;;;;83.30;36.58;;;;;;;-1.18;nan;101280.78;5071412;28;20048;-76
2022/01/17 09:07:16;;;;;;;81.50;35.45;;;;;;;-1.21;nan;101245.66;5088100;28;20028;-76
2022/01/17 09:09:43;;;;;;;83.80;36.42;;;;;;;-1.15;nan;101255.50;5080088;28;20031;-76
2022/01/17 09:12:11;;;;;;;84.13;36.60;;;;;;;-1.10;nan;101276.63;5085045;28;20371;-76
2022/01/17 09:14:38;;;;;;;83.50;35.90;;;;;;;-1.16;nan;101248.69;5078145;28;20445;-76
2022/01/17 09:17:09;;;;;;;84.07;36.20;;;;;;;-1.28;nan;101210.94;5081869;28;20482;-77
2022/01/17 09:19:36;;;;;;;87.40;37.10;;;;;;;-1.12;nan;101250.06;5080233;28;20035;-77
2022/01/17 09:22:02;;;;;;;88.18;37.22;;;;;;;-0.99;nan;101260.19;5085745;28;20402;-71
2022/01/17 09:24:28;;;;;;;82.93;35.63;;;;;;;-0.96;nan;101236.69;5072050;28;20039;-72
2022/01/17 09:26:54;;;;;;;77.75;34.55;;;;;;;-1.04;nan;101223.59;5078477;28;20040;-73
2022/01/17 09:29:19;;;;;;;83.47;36.95;;;;;;;-1.20;nan;101190.44;5076858;28;20035;-73
2022/01/17 09:31:44;;;;;;;85.30;36.30;;;;;;;-0.92;nan;101222.53;5071325;28;20032;-72
2022/01/17 09:34:10;;;;;;;80.20;35.30;;;;;;;-0.85;nan;101225.44;5076236;28;20032;-72
2022/01/17 09:36:36;;;;;;;84.53;35.25;;;;;;;-0.80;nan;101233.63;5074447;28;20475;-74
2022/01/17 09:39:04;;;;;;;77.10;35.42;;;;;;;-0.88;nan;101216.19;5083697;28;20482;-74
2022/01/17 09:41:31;;;;;;;78.72;34.35;;;;;;;-0.87;nan;101215.22;5085099;28;20155;-74
2022/01/17 09:43:57;;;;;;;77.63;34.10;;;;;;;-0.69;nan;101246.47;5074084;28;20028;-74
2022/01/17 09:46:28;;;;;;;86.68;37.10;;;;;;;-0.70;nan;101233.66;5073414;28;20033;-74
2022/01/17 09:49:12;;;;;;;77.50;34.65;;;;;;;-0.59;nan;101243.09;5079639;28;20035;-74
2022/01/17 09:52:04;;;;;;;83.63;34.58;;;;;;;-0.62;nan;101235.56;5089510;28;20044;-74
2022/01/17 09:54:31;;;;;;;75.88;32.60;;;;;;;-0.66;nan;101206.59;5078367;28;20402;-74
2022/01/17 09:56:58;;;;;;;78.90;34.78;;;;;;;-0.47;nan;101231.69;5083561;28;20024;-74
2022/01/17 09:59:25;;;;;;;81.18;35.00;;;;;;;-0.38;nan;101230.06;5072029;28;20516;-74
2022/01/17 10:01:50;;;;;;;77.80;32.42;;;;;;;-0.48;nan;101186.06;5082469;28;20071;-74
2022/01/17 10:04:19;;;;;;;74.18;34.42;;;;;;;-0.28;nan;101207.63;5074998;28;20120;-74
2022/01/17 10:06:53;;;;;;;77.00;33.67;;;;;;;-0.23;nan;101190.75;5041141;28;20040;-74
2022/01/17 10:09:24;;;;;;;75.30;34.33;;;;;;;-0.30;nan;101162.94;5055849;28;20174;-74
2022/01/17 10:12:13;;;;;;;70.22;31.67;;;;;;;-0.10;nan;101177.53;5058513;28;20053;-71
2022/01/17 10:14:58;;;;;;;66.70;30.27;;;;;;;-0.12;nan;101163.91;5062041;28;20047;-71
2022/01/17 10:17:24;;;;;;;75.68;33.65;;;;;;;0.03;nan;101172.09;5052827;28;20029;-71
2022/01/17 10:20:04;;;;;;;71.20;30.67;;;;;;;0.08;nan;101172.50;5051057;28;20111;-70
2022/01/17 10:22:42;;;;;;;66.53;30.88;;;;;;;0.13;nan;101182.44;5051220;28;20032;-70
2022/01/17 10:26:02;;;;;;;77.47;37.10;;;;;;;0.20;nan;101178.34;5060084;28;20094;-70
2022/01/17 10:28:37;;;;;;;70.47;30.10;;;;;;;0.25;nan;101178.75;5044319;28;20045;-71
2022/01/17 10:36:16;;;;;;;66.50;31.48;;;;;;;0.34;nan;101154.59;5051208;28;20033;-71
2022/01/17 10:38:42;;;;;;;72.85;32.65;;;;;;;0.13;nan;101121.09;5041063;28;20474;-70
2022/01/17 10:41:07;;;;;;;74.35;32.75;;;;;;;0.39;nan;101139.47;5062382;28;20033;-70
2022/01/17 10:43:39;;;;;;;72.10;32.20;;;;;;;0.44;nan;101133.03;5050428;28;20515;-71
2022/01/17 10:46:12;;;;;;;71.97;32.78;;;;;;;0.53;nan;101135.59;5043283;28;20064;-71
2022/01/17 10:48:43;;;;;;;69.70;30.70;;;;;;;0.61;nan;101135.72;5058414;28;20044;-70
2022/01/17 10:51:10;;;;;;;74.78;34.40;;;;;;;0.56;nan;101116.38;5066192;28;20531;-71
2022/01/17 10:53:39;;;;;;;72.10;32.55;;;;;;;0.65;nan;101120.72;5056275;28;20292;-73
2022/01/17 10:56:08;;;;;;;75.00;32.38;;;;;;;0.70;nan;101122.88;5059517;28;20478;-70
2022/01/17 10:58:36;;;;;;;71.93;30.98;;;;;;;0.67;nan;101097.22;5054934;28;20090;-71
2022/01/17 11:01:11;;;;;;;69.50;31.80;;;;;;;0.74;nan;101104.31;5063417;28;20626;-71
2022/01/17 11:03:39;;;;;;;68.65;30.48;;;;;;;0.78;nan;101103.03;5056224;28;20388;-71
2022/01/17 11:06:10;;;;;;;68.45;31.33;;;;;;;0.78;nan;101095.25;5052333;28;20067;-72
2022/01/17 11:08:38;;;;;;;68.43;33.15;;;;;;;0.81;nan;101083.78;5058022;28;20040;-71
2022/01/17 11:11:07;;;;;;;71.20;32.55;;;;;;;0.84;nan;101070.56;5063670;28;20040;-71
2022/01/17 11:13:35;;;;;;;71.55;32.97;;;;;;;0.90;nan;101064.78;5039101;28;20409;-71
2022/01/17 11:16:07;;;;;;;72.80;34.35;;;;;;;0.92;nan;101056.84;5037765;28;20617;-71
2022/01/17 11:18:35;;;;;;;71.13;32.85;;;;;;;0.97;nan;101063.22;5046635;28;20044;-70
2022/01/17 11:21:11;;;;;;;71.75;33.03;;;;;;;0.98;nan;101064.88;5053704;28;20127;-70
2022/01/17 11:23:38;;;;;;;71.88;33.08;;;;;;;1.01;nan;101056.78;5056329;28;20391;-72
2022/01/17 11:26:05;;;;;;;75.57;34.42;;;;;;;0.95;nan;101036.63;5039135;28;20041;-72
2022/01/17 11:28:33;;;;;;;74.25;33.25;;;;;;;0.96;nan;101034.84;5050629;28;20123;-72
2022/01/17 11:31:01;;;;;;;75.07;35.20;;;;;;;1.03;nan;101041.06;5038286;28;20033;-73
2022/01/17 11:33:27;;;;;;;76.50;34.90;;;;;;;1.05;nan;101036.56;5059625;28;20025;-71
2022/01/17 11:35:53;;;;;;;81.85;37.70;;;;;;;1.03;nan;101022.91;5066826;28;20032;-71
2022/01/17 11:38:42;;;;;;;75.28;35.65;;;;;;;1.12;nan;101034.19;5055978;28;20040;-70
2022/01/17 11:41:30;;;;;;;79.15;35.97;;;;;;;1.03;nan;101020.31;5044371;28;20399;-71
2022/01/17 11:44:02;;;;;;;77.70;36.20;;;;;;;1.18;nan;101023.25;5043998;28;20032;-71